sensor_id;sensor_type;location;lat;lon;timestamp;pressure;altitude;pressure_sealevel;temperature;humidity
18755;BME280;35061;47.664;9.166;2023-04-16T00:01:12;101547.96;;;6.57;100.00
18755;BME280;35061;47.664;9.166;2023-04-16T00:03:40;101546.30;;;6.60;100.00
18755;BME280;35061;47.664;9.166;2023-04-16T00:06:09;101556.76;;;6.63;100.00
18755;BME280;35061;47.664;9.166;2023-04-16T00:08:38;101552.70;;;6.64;100.00
18755;BME280;35061;47.664;9.166;2023-04-16T00:11:07;101547.80;;;6.65;100.00
18755;BME280;35061;47.664;9.166;2023-04-16T00:13:35;101552.22;;;6.66;100.00
18755;BME280;35061;47.664;9.166;2023-04-16T00:16:04;101550.65;;;6.65;100.00
18755;BME280;35061;47.664;9.166;2023-04-16T00:18:32;101552.31;;;6.62;100.00
18755;BME280;35061;47.664;9.166;2023-04-16T00:21:00;101554.83;;;6.60;100.00
18755;BME280;35061;47.664;9.166;2023-04-16T00:23:28;101552.87;;;6.57;100.00
18755;BME280;35061;47.664;9.166;2023-04-16T00:25:56;101558.23;;;6.55;100.00
18755;BME280;35061;47.664;9.166;2023-04-16T00:28:26;101550.02;;;6.57;100.00
18755;BME280;35061;47.664;9.166;2023-04-16T00:30:54;101555.65;;;6.61;100.00
18755;BME280;35061;47.664;9.166;2023-04-16T00:33:22;101556.44;;;6.61;100.00
18755;BME280;35061;47.664;9.166;2023-04-16T00:35:50;101559.73;;;6.60;100.00
18755;BME280;35061;47.664;9.166;2023-04-16T00:38:18;101554.83;;;6.60;100.00
18755;BME280;35061;47.664;9.166;2023-04-16T00:40:46;101558.40;;;6.64;100.00
18755;BME280;35061;47.664;9.166;2023-04-16T00:43:26;101557.48;;;6.67;100.00
18755;BME280;35061;47.664;9.166;2023-04-16T00:45:55;101557.94;;;6.66;100.00
18755;BME280;35061;47.664;9.166;2023-04-16T00:48:24;101559.61;;;6.63;100.00
18755;BME280;35061;47.664;9.166;2023-04-16T00:50:54;101557.77;;;6.56;100.00
18755;BME280;35061;47.664;9.166;2023-04-16T00:53:23;101555.48;;;6.51;100.00
18755;BME280;35061;47.664;9.166;2023-04-16T00:55:51;101552.28;;;6.49;100.00
18755;BME280;35061;47.664;9.166;2023-04-16T00:58:20;101558.85;;;6.46;100.00
18755;BME280;35061;47.664;9.166;2023-04-16T01:00:48;101556.01;;;6.46;100.00
18755;BME280;35061;47.664;9.166;2023-04-16T01:03:16;101562.05;;;6.48;100.00
18755;BME280;35061;47.664;9.166;2023-04-16T01:05:44;101561.34;;;6.44;100.00
18755;BME280;35061;47.664;9.166;2023-04-16T01:08:17;101567.03;;;6.44;100.00
18755;BME280;35061;47.664;9.166;2023-04-16T01:10:45;101559.73;;;6.43;100.00
18755;BME280;35061;47.664;9.166;2023-04-16T01:13:13;101562.26;;;6.41;100.00
18755;BME280;35061;47.664;9.166;2023-04-16T01:15:41;101566.34;;;6.40;100.00
18755;BME280;35061;47.664;9.166;2023-04-16T01:18:20;101569.28;;;6.36;100.00
18755;BME280;35061;47.664;9.166;2023-04-16T01:20:51;101568.83;;;6.38;100.00
18755;BME280;35061;47.664;9.166;2023-04-16T01:23:19;101572.46;;;6.38;100.00
18755;BME280;35061;47.664;9.166;2023-04-16T01:25:47;101569.61;;;6.38;100.00
18755;BME280;35061;47.664;9.166;2023-04-16T01:28:15;101565.98;;;6.38;100.00
18755;BME280;35061;47.664;9.166;2023-04-16T01:30:43;101565.52;;;6.39;100.00
18755;BME280;35061;47.664;9.166;2023-04-16T01:33:12;101564.28;;;6.40;100.00
18755;BME280;35061;47.664;9.166;2023-04-16T01:35:40;101565.10;;;6.41;100.00
18755;BME280;35061;47.664;9.166;2023-04-16T01:38:08;101556.83;;;6.47;100.00
18755;BME280;35061;47.664;9.166;2023-04-16T01:40:37;101570.59;;;6.48;100.00
18755;BME280;35061;47.664;9.166;2023-04-16T01:43:05;101558.76;;;6.50;100.00
18755;BME280;35061;47.664;9.166;2023-04-16T01:45:34;101559.90;;;6.52;100.00
18755;BME280;35061;47.664;9.166;2023-04-16T01:48:02;101569.61;;;6.55;100.00
18755;BME280;35061;47.664;9.166;2023-04-16T01:50:30;101563.10;;;6.54;100.00
18755;BME280;35061;47.664;9.166;2023-04-16T01:52:58;101574.38;;;6.58;100.00
18755;BME280;35061;47.664;9.166;2023-04-16T01:55:28;101563.82;;;6.59;100.00
18755;BME280;35061;47.664;9.166;2023-04-16T01:57:56;101571.54;;;6.58;100.00
18755;BME280;35061;47.664;9.166;2023-04-16T02:00:24;101569.05;;;6.60;100.00
18755;BME280;35061;47.664;9.166;2023-04-16T02:02:52;101569.05;;;6.60;100.00
18755;BME280;35061;47.664;9.166;2023-04-16T02:05:20;101569.05;;;6.60;100.00
18755;BME280;35061;47.664;9.166;2023-04-16T02:07:48;101569.41;;;6.62;100.00
18755;BME280;35061;47.664;9.166;2023-04-16T02:10:16;101571.80;;;6.64;100.00
18755;BME280;35061;47.664;9.166;2023-04-16T02:12:44;101569.32;;;6.66;100.00
18755;BME280;35061;47.664;9.166;2023-04-16T02:15:13;101570.92;;;6.67;100.00
18755;BME280;35061;47.664;9.166;2023-04-16T02:17:43;101574.91;;;6.69;100.00
18755;BME280;35061;47.664;9.166;2023-04-16T02:20:13;101573.66;;;6.70;100.00
18755;BME280;35061;47.664;9.166;2023-04-16T02:22:41;101576.09;;;6.72;100.00
18755;BME280;35061;47.664;9.166;2023-04-16T02:25:10;101580.96;;;6.72;100.00
18755;BME280;35061;47.664;9.166;2023-04-16T02:27:38;101576.09;;;6.72;100.00
18755;BME280;35061;47.664;9.166;2023-04-16T02:30:06;101568.80;;;6.71;100.00
18755;BME280;35061;47.664;9.166;2023-04-16T02:32:34;101571.97;;;6.73;100.00
18755;BME280;35061;47.664;9.166;2023-04-16T02:35:02;101576.41;;;6.74;100.00
18755;BME280;35061;47.664;9.166;2023-04-16T02:37:30;101574.48;;;6.71;100.00
18755;BME280;35061;47.664;9.166;2023-04-16T02:39:58;101575.34;;;6.68;100.00
18755;BME280;35061;47.664;9.166;2023-04-16T02:42:26;101568.08;;;6.67;100.00
18755;BME280;35061;47.664;9.166;2023-04-16T02:44:55;101579.00;;;6.68;100.00
18755;BME280;35061;47.664;9.166;2023-04-16T02:47:23;101581.41;;;6.70;100.00
18755;BME280;35061;47.664;9.166;2023-04-16T02:49:51;101578.21;;;6.68;100.00
18755;BME280;35061;47.664;9.166;2023-04-16T02:52:19;101573.30;;;6.68;100.00
18755;BME280;35061;47.664;9.166;2023-04-16T02:54:47;101569.32;;;6.66;100.00
18755;BME280;35061;47.664;9.166;2023-04-16T02:57:15;101578.93;;;6.72;100.00
18755;BME280;35061;47.664;9.166;2023-04-16T02:59:43;101572.42;;;6.72;100.00
18755;BME280;35061;47.664;9.166;2023-04-16T03:02:11;101571.54;;;6.75;100.00
18755;BME280;35061;47.664;9.166;2023-04-16T03:04:38;101574.38;;;6.75;100.00
18755;BME280;35061;47.664;9.166;2023-04-16T03:07:07;101580.86;;;6.75;100.00
18755;BME280;35061;47.664;9.166;2023-04-16T03:09:35;101576.41;;;6.74;100.00
18755;BME280;35061;47.664;9.166;2023-04-16T03:12:04;101580.08;;;6.75;100.00
18755;BME280;35061;47.664;9.166;2023-04-16T03:14:32;101581.68;;;6.76;100.00
18755;BME280;35061;47.664;9.166;2023-04-16T03:17:00;101584.52;;;6.76;100.00
18755;BME280;35061;47.664;9.166;2023-04-16T03:19:28;101575.59;;;6.74;100.00
18755;BME280;35061;47.664;9.166;2023-04-16T03:21:56;101580.50;;;6.73;100.00
18755;BME280;35061;47.664;9.166;2023-04-16T03:24:24;101576.09;;;6.72;100.00
18755;BME280;35061;47.664;9.166;2023-04-16T03:26:52;101580.50;;;6.73;100.00
18755;BME280;35061;47.664;9.166;2023-04-16T03:29:20;101582.56;;;6.73;100.00
18755;BME280;35061;47.664;9.166;2023-04-16T03:31:48;101581.41;;;6.70;100.00
18755;BME280;35061;47.664;9.166;2023-04-16T03:34:16;101583.90;;;6.68;100.00
18755;BME280;35061;47.664;9.166;2023-04-16T03:36:44;101582.20;;;6.70;100.00
18755;BME280;35061;47.664;9.166;2023-04-16T03:39:12;101578.57;;;6.70;100.00
18755;BME280;35061;47.664;9.166;2023-04-16T03:41:40;101581.05;;;6.68;100.00
18755;BME280;35061;47.664;9.166;2023-04-16T03:44:08;101581.52;;;6.66;100.00
18755;BME280;35061;47.664;9.166;2023-04-16T03:46:36;101578.77;;;6.63;100.00
18755;BME280;35061;47.664;9.166;2023-04-16T03:49:04;101585.70;;;6.62;100.00
18755;BME280;35061;47.664;9.166;2023-04-16T03:51:33;101580.80;;;6.62;100.00
18755;BME280;35061;47.664;9.166;2023-04-16T03:54:01;101588.09;;;6.63;100.00
18755;BME280;35061;47.664;9.166;2023-04-16T03:56:29;101586.95;;;6.61;100.00
18755;BME280;35061;47.664;9.166;2023-04-16T03:58:57;101589.43;;;6.59;100.00
18755;BME280;35061;47.664;9.166;2023-04-16T04:01:25;101590.57;;;6.61;100.00
18755;BME280;35061;47.664;9.166;2023-04-16T04:03:53;101584.88;;;6.61;100.00
18755;BME280;35061;47.664;9.166;2023-04-16T04:06:21;101592.99;;;6.63;100.00
18755;BME280;35061;47.664;9.166;2023-04-16T04:08:49;101590.93;;;6.63;100.00
18755;BME280;35061;47.664;9.166;2023-04-16T04:11:17;101584.46;;;6.63;100.00
18755;BME280;35061;47.664;9.166;2023-04-16T04:13:45;101582.40;;;6.63;100.00
18755;BME280;35061;47.664;9.166;2023-04-16T04:16:13;101593.78;;;6.63;100.00
18755;BME280;35061;47.664;9.166;2023-04-16T04:18:41;101593.78;;;6.63;100.00
18755;BME280;35061;47.664;9.166;2023-04-16T04:21:10;101596.16;;;6.65;100.00
18755;BME280;35061;47.664;9.166;2023-04-16T04:23:38;101604.73;;;6.65;100.00
18755;BME280;35061;47.664;9.166;2023-04-16T04:26:05;101594.14;;;6.65;100.00
18755;BME280;35061;47.664;9.166;2023-04-16T04:28:34;101600.61;;;6.66;100.00
18755;BME280;35061;47.664;9.166;2023-04-16T04:31:02;101598.26;;;6.64;100.00
18755;BME280;35061;47.664;9.166;2023-04-16T04:33:30;101603.45;;;6.66;100.00
18755;BME280;35061;47.664;9.166;2023-04-16T04:35:58;101605.55;;;6.65;100.00
18755;BME280;35061;47.664;9.166;2023-04-16T04:38:26;101606.30;;;6.66;100.00
18755;BME280;35061;47.664;9.166;2023-04-16T04:40:54;101611.11;;;6.69;100.00
18755;BME280;35061;47.664;9.166;2023-04-16T04:43:22;101616.80;;;6.69;100.00
18755;BME280;35061;47.664;9.166;2023-04-16T04:45:50;101618.04;;;6.68;100.00
18755;BME280;35061;47.664;9.166;2023-04-16T04:48:18;101611.93;;;6.69;100.00
18755;BME280;35061;47.664;9.166;2023-04-16T04:50:46;101614.87;;;6.66;100.00
18755;BME280;35061;47.664;9.166;2023-04-16T04:53:14;101615.20;;;6.68;100.00
18755;BME280;35061;47.664;9.166;2023-04-16T04:55:41;101617.26;;;6.67;100.00
18755;BME280;35061;47.664;9.166;2023-04-16T04:58:09;101620.56;;;6.66;100.00
18755;BME280;35061;47.664;9.166;2023-04-16T05:00:37;101622.95;;;6.67;100.00
18755;BME280;35061;47.664;9.166;2023-04-16T05:03:09;101629.35;;;6.72;100.00
18755;BME280;35061;47.664;9.166;2023-04-16T05:05:38;101631.74;;;6.73;100.00
18755;BME280;35061;47.664;9.166;2023-04-16T05:08:06;101633.70;;;6.76;100.00
18755;BME280;35061;47.664;9.166;2023-04-16T05:10:34;101634.62;;;6.73;100.00
18755;BME280;35061;47.664;9.166;2023-04-16T05:13:02;101632.27;;;6.68;100.00
18755;BME280;35061;47.664;9.166;2023-04-16T05:15:30;101643.77;;;6.64;100.00
18755;BME280;35061;47.664;9.166;2023-04-16T05:17:58;101640.93;;;6.64;100.00
18755;BME280;35061;47.664;9.166;2023-04-16T05:20:26;101640.12;;;6.64;100.00
18755;BME280;35061;47.664;9.166;2023-04-16T05:22:54;101638.87;;;6.65;100.00
18755;BME280;35061;47.664;9.166;2023-04-16T05:25:22;101640.48;;;6.66;100.00
18755;BME280;35061;47.664;9.166;2023-04-16T05:27:50;101640.48;;;6.66;100.00
18755;BME280;35061;47.664;9.166;2023-04-16T05:30:18;101631.16;;;6.65;100.00
18755;BME280;35061;47.664;9.166;2023-04-16T05:32:46;101644.13;;;6.66;100.00
18755;BME280;35061;47.664;9.166;2023-04-16T05:35:14;101650.19;;;6.68;100.00
18755;BME280;35061;47.664;9.166;2023-04-16T05:37:43;101646.52;;;6.68;100.00
18755;BME280;35061;47.664;9.166;2023-04-16T05:40:13;101641.65;;;6.68;100.00
18755;BME280;35061;47.664;9.166;2023-04-16T05:42:41;101649.63;;;6.74;100.00
18755;BME280;35061;47.664;9.166;2023-04-16T05:45:09;101653.62;;;6.76;100.00
18755;BME280;35061;47.664;9.166;2023-04-16T05:47:37;101652.05;;;6.75;100.00
18755;BME280;35061;47.664;9.166;2023-04-16T05:50:05;101654.80;;;6.79;100.00
18755;BME280;35061;47.664;9.166;2023-04-16T05:52:33;101658.55;;;6.76;100.00
18755;BME280;35061;47.664;9.166;2023-04-16T05:55:01;101661.01;;;6.74;100.00
18755;BME280;35061;47.664;9.166;2023-04-16T05:57:30;101672.39;;;6.74;100.00
18755;BME280;35061;47.664;9.166;2023-04-16T05:59:57;101663.43;;;6.75;100.00
18755;BME280;35061;47.664;9.166;2023-04-16T06:02:25;101675.17;;;6.77;100.00
18755;BME280;35061;47.664;9.166;2023-04-16T06:04:53;101668.20;;;6.78;100.00
18755;BME280;35061;47.664;9.166;2023-04-16T06:07:21;101665.75;;;6.80;100.00
18755;BME280;35061;47.664;9.166;2023-04-16T06:09:49;101660.75;;;6.84;100.00
18755;BME280;35061;47.664;9.166;2023-04-16T06:12:17;101663.95;;;6.87;100.00
18755;BME280;35061;47.664;9.166;2023-04-16T06:14:45;101662.25;;;6.89;100.00
18755;BME280;35061;47.664;9.166;2023-04-16T06:17:13;101661.01;;;6.90;100.00
18755;BME280;35061;47.664;9.166;2023-04-16T06:19:41;101668.30;;;6.91;100.00
18755;BME280;35061;47.664;9.166;2023-04-16T06:22:09;101675.17;;;6.94;100.00
18755;BME280;35061;47.664;9.166;2023-04-16T06:24:37;101679.62;;;6.95;100.00
18755;BME280;35061;47.664;9.166;2023-04-16T06:27:05;101665.72;;;6.97;100.00
18755;BME280;35061;47.664;9.166;2023-04-16T06:29:33;101670.63;;;6.96;100.00
18755;BME280;35061;47.664;9.166;2023-04-16T06:32:07;101672.65;;;6.96;100.00
18755;BME280;35061;47.664;9.166;2023-04-16T06:34:36;101681.55;;;6.98;100.00
18755;BME280;35061;47.664;9.166;2023-04-16T06:37:05;101679.06;;;7.00;100.00
18755;BME280;35061;47.664;9.166;2023-04-16T06:39:36;101678.60;;;7.02;100.00
18755;BME280;35061;47.664;9.166;2023-04-16T06:42:04;101682.62;;;7.04;100.00
18755;BME280;35061;47.664;9.166;2023-04-16T06:44:32;101679.78;;;7.04;100.00
18755;BME280;35061;47.664;9.166;2023-04-16T06:47:00;101680.47;;;7.08;100.00
18755;BME280;35061;47.664;9.166;2023-04-16T06:49:28;101684.45;;;7.11;100.00
18755;BME280;35061;47.664;9.166;2023-04-16T06:51:56;101690.08;;;7.15;100.00
18755;BME280;35061;47.664;9.166;2023-04-16T06:54:24;101689.16;;;7.18;100.00
18755;BME280;35061;47.664;9.166;2023-04-16T06:56:52;101690.77;;;7.19;100.00
18755;BME280;35061;47.664;9.166;2023-04-16T06:59:20;101685.41;;;7.21;100.00
18755;BME280;35061;47.664;9.166;2023-04-16T07:01:48;101695.93;;;7.24;100.00
18755;BME280;35061;47.664;9.166;2023-04-16T07:04:16;101697.86;;;7.27;100.00
18755;BME280;35061;47.664;9.166;2023-04-16T07:06:44;101694.04;;;7.34;100.00
18755;BME280;35061;47.664;9.166;2023-04-16T07:09:12;101698.81;;;7.37;100.00
18755;BME280;35061;47.664;9.166;2023-04-16T07:11:40;101706.85;;;7.42;100.00
18755;BME280;35061;47.664;9.166;2023-04-16T07:14:08;101707.61;;;7.43;100.00
18755;BME280;35061;47.664;9.166;2023-04-16T07:16:36;101715.65;;;7.48;100.00
18755;BME280;35061;47.664;9.166;2023-04-16T07:19:04;101708.13;;;7.54;100.00
18755;BME280;35061;47.664;9.166;2023-04-16T07:21:33;101705.25;;;7.54;100.00
18755;BME280;35061;47.664;9.166;2023-04-16T07:24:01;101699.95;;;7.56;100.00
18755;BME280;35061;47.664;9.166;2023-04-16T07:26:29;101702.41;;;7.54;100.00
18755;BME280;35061;47.664;9.166;2023-04-16T07:28:57;101707.57;;;7.59;100.00
18755;BME280;35061;47.664;9.166;2023-04-16T07:31:25;101700.97;;;7.62;100.00
18755;BME280;35061;47.664;9.166;2023-04-16T07:33:53;101702.93;;;7.65;100.00
18755;BME280;35061;47.664;9.166;2023-04-16T07:36:22;101711.37;;;7.69;100.00
18755;BME280;35061;47.664;9.166;2023-04-16T07:38:49;101711.83;;;7.67;100.00
18755;BME280;35061;47.664;9.166;2023-04-16T07:41:18;101713.79;;;7.71;100.00
18755;BME280;35061;47.664;9.166;2023-04-16T07:43:45;101716.96;;;7.73;100.00
18755;BME280;35061;47.664;9.166;2023-04-16T07:46:13;101713.79;;;7.71;100.00
18755;BME280;35061;47.664;9.166;2023-04-16T07:48:42;101711.83;;;7.67;100.00
18755;BME280;35061;47.664;9.166;2023-04-16T07:51:10;101715.13;;;7.66;100.00
18755;BME280;35061;47.664;9.166;2023-04-16T07:53:38;101711.73;;;7.71;100.00
18755;BME280;35061;47.664;9.166;2023-04-16T07:56:06;101718.70;;;7.70;100.00
18755;BME280;35061;47.664;9.166;2023-04-16T07:58:35;101725.16;;;7.71;100.00
18755;BME280;35061;47.664;9.166;2023-04-16T08:01:03;101726.93;;;7.81;100.00
18755;BME280;35061;47.664;9.166;2023-04-16T08:03:31;101730.59;;;7.81;100.00
18755;BME280;35061;47.664;9.166;2023-04-16T08:05:59;101729.88;;;7.77;100.00
18755;BME280;35061;47.664;9.166;2023-04-16T08:08:27;101737.27;;;7.75;100.00
18755;BME280;35061;47.664;9.166;2023-04-16T08:10:56;101741.74;;;7.76;100.00
18755;BME280;35061;47.664;9.166;2023-04-16T08:13:24;101735.66;;;7.74;100.00
18755;BME280;35061;47.664;9.166;2023-04-16T08:15:52;101737.66;;;7.77;100.00
18755;BME280;35061;47.664;9.166;2023-04-16T08:18:20;101748.48;;;7.82;100.00
18755;BME280;35061;47.664;9.166;2023-04-16T08:20:48;101744.36;;;7.83;100.00
18755;BME280;35061;47.664;9.166;2023-04-16T08:23:16;101750.90;;;7.84;100.00
18755;BME280;35061;47.664;9.166;2023-04-16T08:25:46;101756.13;;;7.85;100.00
18755;BME280;35061;47.664;9.166;2023-04-16T08:28:14;101755.35;;;7.85;100.00
18755;BME280;35061;47.664;9.166;2023-04-16T08:30:42;101758.98;;;7.85;100.00
18755;BME280;35061;47.664;9.166;2023-04-16T08:33:11;101761.82;;;7.85;100.00
18755;BME280;35061;47.664;9.166;2023-04-16T08:35:40;101770.03;;;7.83;100.00
18755;BME280;35061;47.664;9.166;2023-04-16T08:38:08;101767.55;;;7.85;100.00
18755;BME280;35061;47.664;9.166;2023-04-16T08:40:39;101763.55;;;7.82;100.00
18755;BME280;35061;47.664;9.166;2023-04-16T08:43:09;101759.21;;;7.78;100.00
18755;BME280;35061;47.664;9.166;2023-04-16T08:45:40;101769.02;;;7.77;100.00
18755;BME280;35061;47.664;9.166;2023-04-16T08:48:11;101773.46;;;7.78;100.00
18755;BME280;35061;47.664;9.166;2023-04-16T08:50:39;101777.91;;;7.79;100.00
18755;BME280;35061;47.664;9.166;2023-04-16T08:53:10;101773.79;;;7.80;100.00
18755;BME280;35061;47.664;9.166;2023-04-16T08:55:48;101776.31;;;7.78;100.00
18755;BME280;35061;47.664;9.166;2023-04-16T08:58:18;101777.55;;;7.77;100.00
18755;BME280;35061;47.664;9.166;2023-04-16T09:00:48;101783.80;;;7.72;100.00
18755;BME280;35061;47.664;9.166;2023-04-16T09:03:16;101782.66;;;7.69;100.00
18755;BME280;35061;47.664;9.166;2023-04-16T09:05:48;101796.03;;;7.72;100.00
18755;BME280;35061;47.664;9.166;2023-04-16T09:08:16;101790.24;;;7.76;100.00
18755;BME280;35061;47.664;9.166;2023-04-16T09:10:44;101794.20;;;7.78;100.00
18755;BME280;35061;47.664;9.166;2023-04-16T09:13:13;101784.52;;;7.76;100.00
18755;BME280;35061;47.664;9.166;2023-04-16T09:15:43;101794.20;;;7.78;100.00
18755;BME280;35061;47.664;9.166;2023-04-16T09:18:11;101799.37;;;7.84;100.00
18755;BME280;35061;47.664;9.166;2023-04-16T09:20:39;101796.78;;;7.89;100.00
18755;BME280;35061;47.664;9.166;2023-04-16T09:23:08;101789.81;;;7.90;100.00
18755;BME280;35061;47.664;9.166;2023-04-16T09:25:37;101794.59;;;7.93;100.00
18755;BME280;35061;47.664;9.166;2023-04-16T09:28:06;101797.80;;;7.95;100.00
18755;BME280;35061;47.664;9.166;2023-04-16T09:30:36;101794.85;;;7.99;100.00
18755;BME280;35061;47.664;9.166;2023-04-16T09:33:20;101795.90;;;8.05;100.00
18755;BME280;35061;47.664;9.166;2023-04-16T09:35:51;101791.71;;;8.10;100.00
18755;BME280;35061;47.664;9.166;2023-04-16T09:38:19;101801.42;;;8.13;100.00
18755;BME280;35061;47.664;9.166;2023-04-16T09:41:04;101803.02;;;8.14;100.00
18755;BME280;35061;47.664;9.166;2023-04-16T09:43:32;101813.06;;;8.18;100.00
18755;BME280;35061;47.664;9.166;2023-04-16T09:46:03;101809.30;;;8.21;100.00
18755;BME280;35061;47.664;9.166;2023-04-16T09:48:33;101806.98;;;8.16;100.00
18755;BME280;35061;47.664;9.166;2023-04-16T09:51:05;101807.80;;;8.17;100.00
18755;BME280;35061;47.664;9.166;2023-04-16T09:53:33;101810.22;;;8.18;100.00
18755;BME280;35061;47.664;9.166;2023-04-16T09:56:05;101805.74;;;8.17;100.00
18755;BME280;35061;47.664;9.166;2023-04-16T09:58:36;101817.15;;;8.17;100.00
18755;BME280;35061;47.664;9.166;2023-04-16T10:01:09;101815.02;;;8.21;100.00
18755;BME280;35061;47.664;9.166;2023-04-16T10:03:39;101815.68;;;8.26;100.00
18755;BME280;35061;47.664;9.166;2023-04-16T10:06:13;101819.80;;;8.24;100.00
18755;BME280;35061;47.664;9.166;2023-04-16T10:08:49;101817.88;;;8.21;100.00
18755;BME280;35061;47.664;9.166;2023-04-16T10:11:18;101816.95;;;8.24;100.00
18755;BME280;35061;47.664;9.166;2023-04-16T10:13:46;101818.55;;;8.26;100.00
18755;BME280;35061;47.664;9.166;2023-04-16T10:16:15;101821.30;;;8.29;100.00
18755;BME280;35061;47.664;9.166;2023-04-16T10:18:44;101824.05;;;8.33;100.00
18755;BME280;35061;47.664;9.166;2023-04-16T10:21:12;101820.52;;;8.29;99.41
18755;BME280;35061;47.664;9.166;2023-04-16T10:23:42;101825.75;;;8.30;99.62
18755;BME280;35061;47.664;9.166;2023-04-16T10:26:10;101826.21;;;8.29;98.77
18755;BME280;35061;47.664;9.166;2023-04-16T10:28:39;101825.66;;;8.34;99.49
18755;BME280;35061;47.664;9.166;2023-04-16T10:31:07;101818.92;;;8.41;99.96
18755;BME280;35061;47.664;9.166;2023-04-16T10:33:39;101831.84;;;8.45;99.70
18755;BME280;35061;47.664;9.166;2023-04-16T10:36:24;101825.63;;;8.50;99.56
18755;BME280;35061;47.664;9.166;2023-04-16T10:38:57;101827.88;;;8.56;99.48
18755;BME280;35061;47.664;9.166;2023-04-16T10:41:26;101823.01;;;8.56;98.60
18755;BME280;35061;47.664;9.166;2023-04-16T10:44:06;101825.36;;;8.58;98.66
18755;BME280;35061;47.664;9.166;2023-04-16T10:46:38;101821.73;;;8.57;98.68
18755;BME280;35061;47.664;9.166;2023-04-16T10:51:53;101826.96;;;8.59;98.77
18755;BME280;35061;47.664;9.166;2023-04-16T10:54:29;101828.11;;;8.61;98.74
18755;BME280;35061;47.664;9.166;2023-04-16T10:56:58;101826.96;;;8.59;98.99
18755;BME280;35061;47.664;9.166;2023-04-16T10:59:31;101824.84;;;8.63;98.86
18755;BME280;35061;47.664;9.166;2023-04-16T11:02:15;101820.81;;;8.60;98.16
18755;BME280;35061;47.664;9.166;2023-04-16T11:04:47;101823.37;;;8.71;98.86
18755;BME280;35061;47.664;9.166;2023-04-16T11:07:32;101827.32;;;8.74;97.81
18755;BME280;35061;47.664;9.166;2023-04-16T11:10:05;101821.17;;;8.75;98.14
18755;BME280;35061;47.664;9.166;2023-04-16T11:12:35;101825.63;;;8.76;98.25
18755;BME280;35061;47.664;9.166;2023-04-16T11:15:13;101827.78;;;8.85;98.08
18755;BME280;35061;47.664;9.166;2023-04-16T11:17:49;101828.92;;;8.88;97.97
18755;BME280;35061;47.664;9.166;2023-04-16T11:20:25;101828.83;;;8.91;97.79
18755;BME280;35061;47.664;9.166;2023-04-16T11:22:56;101831.67;;;8.91;97.60
18755;BME280;35061;47.664;9.166;2023-04-16T11:25:26;101829.74;;;8.88;96.57
18755;BME280;35061;47.664;9.166;2023-04-16T11:27:57;101836.34;;;8.85;96.03
18755;BME280;35061;47.664;9.166;2023-04-16T11:30:32;101827.68;;;8.76;95.15
18755;BME280;35061;47.664;9.166;2023-04-16T11:33:04;101831.34;;;8.76;95.88
18755;BME280;35061;47.664;9.166;2023-04-16T11:35:32;101831.77;;;8.75;95.33
18755;BME280;35061;47.664;9.166;2023-04-16T11:38:00;101833.86;;;8.74;95.78
18755;BME280;35061;47.664;9.166;2023-04-16T11:40:29;101820.95;;;8.70;95.20
18755;BME280;35061;47.664;9.166;2023-04-16T11:43:02;101838.41;;;8.72;95.90
18755;BME280;35061;47.664;9.166;2023-04-16T11:45:30;101839.23;;;8.72;95.52
18755;BME280;35061;47.664;9.166;2023-04-16T11:47:58;101826.54;;;8.73;95.97
18755;BME280;35061;47.664;9.166;2023-04-16T11:50:27;101840.73;;;8.77;96.09
18755;BME280;35061;47.664;9.166;2023-04-16T11:52:57;101828.83;;;8.78;96.01
18755;BME280;35061;47.664;9.166;2023-04-16T11:55:29;101838.99;;;8.79;95.89
18755;BME280;35061;47.664;9.166;2023-04-16T11:58:10;101836.61;;;8.78;95.10
18755;BME280;35061;47.664;9.166;2023-04-16T12:00:38;101844.36;;;8.77;94.29
18755;BME280;35061;47.664;9.166;2023-04-16T12:03:06;101844.91;;;8.85;95.22
18755;BME280;35061;47.664;9.166;2023-04-16T12:05:36;101834.55;;;8.91;94.60
18755;BME280;35061;47.664;9.166;2023-04-16T12:08:09;101841.52;;;9.03;95.23
18755;BME280;35061;47.664;9.166;2023-04-16T12:10:53;101838.73;;;9.13;95.42
18755;BME280;35061;47.664;9.166;2023-04-16T12:13:21;101852.70;;;9.24;93.57
18755;BME280;35061;47.664;9.166;2023-04-16T12:15:54;101835.56;;;9.24;93.68
18755;BME280;35061;47.664;9.166;2023-04-16T12:18:23;101845.14;;;9.30;94.15
18755;BME280;35061;47.664;9.166;2023-04-16T12:20:55;101842.53;;;9.35;94.21
18755;BME280;35061;47.664;9.166;2023-04-16T12:23:28;101842.27;;;9.43;93.81
18755;BME280;35061;47.664;9.166;2023-04-16T12:25:57;101839.98;;;9.51;94.13
18755;BME280;35061;47.664;9.166;2023-04-16T12:28:31;101842.95;;;9.47;93.33
18755;BME280;35061;47.664;9.166;2023-04-16T12:31:01;101843.61;;;9.51;93.78
18755;BME280;35061;47.664;9.166;2023-04-16T12:33:29;101849.00;;;9.49;93.61
18755;BME280;35061;47.664;9.166;2023-04-16T12:35:57;101849.46;;;9.47;92.97
18755;BME280;35061;47.664;9.166;2023-04-16T12:38:26;101849.95;;;9.33;92.78
18755;BME280;35061;47.664;9.166;2023-04-16T12:40:54;101846.87;;;9.27;93.54
18755;BME280;35061;47.664;9.166;2023-04-16T12:43:24;101852.60;;;9.27;94.23
18755;BME280;35061;47.664;9.166;2023-04-16T12:45:52;101851.00;;;9.13;93.05
18755;BME280;35061;47.664;9.166;2023-04-16T12:48:20;101851.23;;;9.06;94.02
18755;BME280;35061;47.664;9.166;2023-04-16T12:50:48;101860.38;;;9.01;94.44
18755;BME280;35061;47.664;9.166;2023-04-16T12:53:16;101858.68;;;9.03;94.66
18755;BME280;35061;47.664;9.166;2023-04-16T12:55:44;101852.70;;;9.11;94.48
18755;BME280;35061;47.664;9.166;2023-04-16T12:58:12;101857.73;;;9.19;94.79
18755;BME280;35061;47.664;9.166;2023-04-16T13:00:40;101850.87;;;9.30;94.59
18755;BME280;35061;47.664;9.166;2023-04-16T13:03:08;101852.57;;;9.40;94.48
18755;BME280;35061;47.664;9.166;2023-04-16T13:05:36;101858.84;;;9.48;94.42